Time;durP1;ratioP1;P1;durP2;ratioP2;P2;SDS_P1;SDS_P2;PMS_P1;PMS_P2;Temp;Humidity;BMP_temperature;BMP_pressure;BME280_temperature;BME280_humidity;BME280_pressure;Samples;Min_cycle;Max_cycle;Signal;HPM_P1;HPM_P2
2023/01/27 00:01:48;;;;;;;142.95;77.95;;;;;;;8.16;65.66;99398.28;5011844;28;20116;-59
2023/01/27 00:04:30;;;;;;;131.80;72.30;;;;;;;8.20;66.33;99404.88;5009965;28;20151;-59
2023/01/27 00:07:19;;;;;;;151.73;75.28;;;;;;;8.21;66.88;99406.53;5012402;28;20064;-61
2023/01/27 00:10:09;;;;;;;150.55;75.47;;;;;;;8.19;66.20;99405.06;5015108;28;20049;-60
2023/01/27 00:13:35;;;;;;;135.85;73.85;;;;;;;7.96;66.85;99410.91;5010369;28;20049;-58
2023/01/27 00:16:04;;;;;;;141.60;75.65;;;;;;;7.94;67.84;99410.22;5009959;28;20053;-60
2023/01/27 00:18:53;;;;;;;138.65;77.30;;;;;;;8.03;68.07;99409.28;5012539;28;20156;-61
2023/01/27 00:24:42;;;;;;;145.02;76.13;;;;;;;7.98;67.74;99422.09;5007630;28;20079;-59
2023/01/27 00:27:26;;;;;;;142.48;77.70;;;;;;;7.90;67.79;99413.34;5022175;28;20076;-59
2023/01/27 00:30:16;;;;;;;135.48;77.05;;;;;;;7.72;68.14;99418.69;5041463;28;20067;-60
2023/01/27 00:36:06;;;;;;;144.23;76.45;;;;;;;7.68;68.01;99430.53;5043592;28;20056;-59
2023/01/27 00:38:55;;;;;;;137.13;77.78;;;;;;;7.62;68.84;99431.97;5041962;28;20052;-59
2023/01/27 00:41:38;;;;;;;136.73;75.13;;;;;;;7.69;68.67;99434.81;5029747;28;20064;-59
2023/01/27 00:44:27;;;;;;;133.70;72.88;;;;;;;7.82;67.99;99431.75;5043065;28;20054;-59
2023/01/27 00:47:18;;;;;;;138.90;74.28;;;;;;;7.84;67.52;99429.78;5047097;28;20730;-58
2023/01/27 00:50:07;;;;;;;140.77;74.18;;;;;;;7.83;67.61;99436.06;5048993;28;20053;-59
2023/01/27 00:53:04;;;;;;;142.75;71.60;;;;;;;7.94;67.21;99439.22;5047797;28;20556;-59
2023/01/27 00:55:41;;;;;;;136.50;72.90;;;;;;;7.79;67.81;99448.69;5048324;28;20051;-60
2023/01/27 00:58:37;;;;;;;140.07;74.75;;;;;;;7.68;68.47;99459.53;5038598;28;20056;-59
2023/01/27 01:01:15;;;;;;;137.63;72.35;;;;;;;7.80;68.50;99450.34;5027021;28;20053;-59
2023/01/27 01:04:11;;;;;;;131.32;70.68;;;;;;;7.88;67.00;99446.94;5008521;28;20057;-59
2023/01/27 01:06:47;;;;;;;139.75;71.07;;;;;;;7.75;68.33;99451.81;5011675;28;20049;-59
2023/01/27 01:09:35;;;;;;;142.85;74.72;;;;;;;7.76;67.77;99454.28;5048507;28;20427;-60
2023/01/27 01:12:28;;;;;;;134.18;75.18;;;;;;;7.81;67.71;99449.38;5036209;28;20131;-59
2023/01/27 01:15:17;;;;;;;135.98;75.38;;;;;;;7.75;67.56;99459.72;5047908;28;20080;-59
2023/01/27 01:17:59;;;;;;;136.88;75.60;;;;;;;7.76;67.35;99464.00;5047953;28;20045;-59
2023/01/27 01:20:51;;;;;;;143.23;76.40;;;;;;;7.82;66.15;99469.50;5047393;28;20110;-59
2023/01/27 01:23:34;;;;;;;142.90;76.78;;;;;;;7.75;67.52;99470.25;5029399;28;20857;-59
2023/01/27 01:26:23;;;;;;;150.57;76.57;;;;;;;7.75;67.38;99475.53;5028085;28;20107;-59
2023/01/27 01:29:05;;;;;;;138.25;75.75;;;;;;;7.61;67.92;99472.47;5027781;28;20065;-58
2023/01/27 01:31:54;;;;;;;143.15;77.07;;;;;;;7.63;68.12;99475.81;5032651;28;20104;-60
2023/01/27 01:34:37;;;;;;;142.75;75.72;;;;;;;7.79;67.80;99477.69;5007084;28;20100;-59
2023/01/27 01:37:26;;;;;;;143.63;77.13;;;;;;;7.75;68.34;99488.72;5007532;28;20497;-61
2023/01/27 01:40:11;;;;;;;144.55;76.95;;;;;;;7.54;68.96;99496.97;5027365;28;20060;-60
2023/01/27 01:43:08;;;;;;;153.07;78.10;;;;;;;7.77;69.00;99498.16;5032979;28;20135;-59
2023/01/27 01:45:53;;;;;;;146.32;78.22;;;;;;;7.58;69.27;99499.16;5036647;28;20064;-60
2023/01/27 01:49:01;;;;;;;151.02;78.00;;;;;;;7.53;70.22;99500.59;5024387;28;20049;-61
2023/01/27 01:51:48;;;;;;;145.35;75.82;;;;;;;7.45;70.35;99501.38;5008924;28;20045;-60
2023/01/27 01:54:53;;;;;;;133.90;74.70;;;;;;;7.53;70.43;99509.34;5043958;28;20052;-60
2023/01/27 01:57:36;;;;;;;149.15;76.60;;;;;;;7.48;69.91;99521.34;5046074;28;20048;-60
2023/01/27 02:00:26;;;;;;;154.80;78.82;;;;;;;7.34;70.21;99517.44;5026505;28;20045;-59
2023/01/27 02:03:09;;;;;;;143.32;79.20;;;;;;;7.32;70.91;99515.91;5033731;28;20060;-61
2023/01/27 02:06:06;;;;;;;147.15;81.65;;;;;;;7.91;68.00;99520.47;5008511;28;20053;-60
2023/01/27 02:08:46;;;;;;;156.13;79.50;;;;;;;7.97;67.81;99531.22;5031398;28;20060;-60
2023/01/27 02:11:35;;;;;;;151.40;78.53;;;;;;;8.03;68.69;99535.88;5028339;28;20492;-61
2023/01/27 02:14:24;;;;;;;146.23;79.30;;;;;;;8.02;68.49;99528.94;5038953;28;20571;-60
2023/01/27 02:17:14;;;;;;;158.88;78.60;;;;;;;7.83;68.25;99541.53;5045487;28;20477;-61
2023/01/27 02:20:45;;;;;;;164.13;81.13;;;;;;;7.78;68.47;99544.63;5027572;28;20054;-60
2023/01/27 02:23:49;;;;;;;155.43;81.47;;;;;;;7.75;68.54;99562.53;4998026;28;20051;-60
2023/01/27 02:26:50;;;;;;;148.93;81.55;;;;;;;7.71;70.16;99569.94;5008079;28;20143;-58
2023/01/27 02:29:34;;;;;;;147.50;79.68;;;;;;;7.75;69.52;99568.66;4999638;28;20057;-59
2023/01/27 02:32:30;;;;;;;146.00;80.13;;;;;;;7.86;69.73;99567.59;5008701;28;20049;-59
2023/01/27 02:35:31;;;;;;;154.85;84.63;;;;;;;7.92;69.38;99570.41;5010451;28;20069;-58
2023/01/27 02:38:16;;;;;;;152.82;81.82;;;;;;;7.87;69.65;99578.00;4992129;28;20134;-58
2023/01/27 02:41:34;;;;;;;172.88;84.88;;;;;;;8.01;68.92;99581.88;5029840;28;20065;-58
2023/01/27 02:44:17;;;;;;;160.93;87.15;;;;;;;7.91;69.27;99600.44;5006944;28;20487;-59
2023/01/27 02:47:06;;;;;;;162.10;85.72;;;;;;;8.02;68.91;99597.53;5025161;28;20670;-57
2023/01/27 02:49:48;;;;;;;160.45;86.20;;;;;;;8.26;68.38;99596.88;5032433;28;20051;-58
2023/01/27 02:52:37;;;;;;;169.38;87.60;;;;;;;8.49;68.39;99602.50;5025272;28;20072;-58
2023/01/27 02:55:19;;;;;;;165.00;88.40;;;;;;;8.46;67.66;99606.25;5041528;28;20049;-58
2023/01/27 02:58:15;;;;;;;165.98;87.95;;;;;;;8.65;68.03;99623.69;5008165;28;20061;-60
2023/01/27 03:00:55;;;;;;;170.80;92.00;;;;;;;8.69;68.74;99625.03;5026132;28;20377;-59
2023/01/27 03:03:45;;;;;;;177.80;95.85;;;;;;;8.74;68.10;99620.09;5007759;28;20050;-59
2023/01/27 03:06:27;;;;;;;183.13;91.53;;;;;;;8.91;68.87;99613.88;5008283;28;20057;-59
2023/01/27 03:09:22;;;;;;;182.57;95.53;;;;;;;9.05;68.83;99616.91;5026072;28;20045;-61
2023/01/27 03:12:18;;;;;;;185.55;95.93;;;;;;;9.10;68.59;99630.47;5005214;28;20073;-61
2023/01/27 03:18:15;;;;;;;184.10;99.95;;;;;;;9.39;68.33;99637.00;5024323;28;20389;-62
2023/01/27 03:21:05;;;;;;;178.80;99.15;;;;;;;9.59;67.34;99645.47;5007550;28;20049;-62
2023/01/27 03:23:48;;;;;;;186.25;100.28;;;;;;;9.98;66.41;99647.47;5008064;28;20505;-61
2023/01/27 03:26:37;;;;;;;163.75;91.28;;;;;;;11.04;61.41;99659.53;5008190;28;20063;-60
2023/01/27 03:32:32;;;;;;;172.48;87.88;;;;;;;12.61;54.71;99659.75;5023979;28;20412;-61
2023/01/27 03:35:47;;;;;;;136.68;75.68;;;;;;;13.27;53.33;99665.19;5016980;28;20041;-60
2023/01/27 03:47:45;;;;;;;171.88;70.90;;;;;;;15.40;48.36;99671.06;5043885;28;20545;-60
2023/01/27 03:50:42;;;;;;;126.07;69.30;;;;;;;15.81;45.97;99681.66;5044224;28;20044;-61
2023/01/27 03:53:30;;;;;;;130.00;68.90;;;;;;;16.29;46.09;99677.00;5022040;28;20048;-63
2023/01/27 03:56:27;;;;;;;128.32;68.47;;;;;;;16.69;46.15;99688.53;5029534;28;20123;-61
2023/01/27 03:59:03;;;;;;;128.38;70.38;;;;;;;17.02;44.81;99683.97;5005209;28;20046;-64
2023/01/27 04:08:05;;;;;;;101.63;60.80;;;;;;;17.97;42.87;99695.75;5026864;28;20055;-61
2023/01/27 04:11:53;;;;;;;113.72;60.13;;;;;;;17.77;40.84;99688.63;5025428;28;20049;-62
2023/01/27 04:13:55;;;;;;;102.10;57.80;;;;;;;17.90;42.68;99691.25;5044644;28;20045;-62
2023/01/27 04:16:33;;;;;;;105.13;55.47;;;;;;;18.20;41.75;99696.81;5031792;28;20731;-61
2023/01/27 04:19:23;;;;;;;85.85;50.58;;;;;;;18.14;40.00;99699.53;5003928;28;20416;-62
2023/01/27 04:22:07;;;;;;;88.53;50.67;;;;;;;18.31;39.89;99711.38;5019503;28;20111;-61
2023/01/27 04:25:01;;;;;;;85.70;48.55;;;;;;;18.97;38.32;99710.84;5020944;28;20053;-61
2023/01/27 04:27:43;;;;;;;79.55;44.72;;;;;;;18.91;37.96;99720.59;5026825;28;20072;-61
2023/01/27 04:30:33;;;;;;;80.72;42.53;;;;;;;19.55;35.00;99724.69;5021132;28;20675;-62
2023/01/27 04:33:28;;;;;;;73.93;42.03;;;;;;;19.34;34.81;99717.84;5003368;28;20064;-62
2023/01/27 04:36:04;;;;;;;73.30;40.88;;;;;;;19.72;36.51;99726.53;5004453;28;20046;-62
2023/01/27 04:38:53;;;;;;;75.25;42.20;;;;;;;20.49;36.06;99724.81;5021324;28;20099;-66
2023/01/27 04:41:44;;;;;;;66.25;40.20;;;;;;;20.44;35.80;99732.78;5015408;28;20174;-63
2023/01/27 04:44:26;;;;;;;66.38;36.75;;;;;;;20.08;34.11;99722.13;5010247;28;20381;-63
2023/01/27 04:47:15;;;;;;;67.70;36.35;;;;;;;20.21;33.08;99724.63;5007342;28;20108;-63
2023/01/27 04:49:57;;;;;;;69.63;34.85;;;;;;;20.94;34.22;99732.34;5024562;28;20132;-64
2023/01/27 04:52:46;;;;;;;58.17;32.70;;;;;;;20.99;32.10;99732.47;5019342;28;20041;-64
2023/01/27 04:55:28;;;;;;;60.35;31.35;;;;;;;20.56;33.01;99738.16;5018559;28;20057;-63
2023/01/27 04:58:18;;;;;;;60.75;30.15;;;;;;;20.41;33.86;99718.94;5017342;28;20076;-64
2023/01/27 05:01:00;;;;;;;62.70;33.70;;;;;;;20.34;32.62;99729.81;5023086;28;20042;-64
2023/01/27 05:03:49;;;;;;;51.33;28.30;;;;;;;20.83;34.35;99717.00;5017586;28;20060;-60
2023/01/27 05:06:32;;;;;;;51.65;30.73;;;;;;;20.91;32.66;99716.66;5010788;28;20060;-63
2023/01/27 05:09:20;;;;;;;58.78;30.45;;;;;;;20.77;32.51;99717.94;4984287;28;20046;-62
2023/01/27 05:12:02;;;;;;;55.22;28.45;;;;;;;20.78;33.94;99720.41;5023184;28;20165;-64
2023/01/27 05:14:51;;;;;;;55.88;29.77;;;;;;;20.88;32.62;99719.81;4999781;28;20445;-66
2023/01/27 05:17:34;;;;;;;62.35;31.25;;;;;;;21.01;29.67;99703.44;5023160;28;20037;-62
2023/01/27 05:20:23;;;;;;;48.72;29.45;;;;;;;20.56;32.08;99708.56;5002496;28;20038;-65
2023/01/27 05:26:33;;;;;;;51.15;29.08;;;;;;;20.44;32.31;99705.88;4981185;28;20074;-65
2023/01/27 05:29:15;;;;;;;53.15;30.75;;;;;;;20.55;30.32;99706.91;5001402;28;20052;-64
2023/01/27 05:32:04;;;;;;;56.65;30.30;;;;;;;21.27;30.63;99700.25;5023814;28;20056;-64
2023/01/27 05:34:59;;;;;;;49.70;27.05;;;;;;;21.11;29.39;99708.22;5029093;28;20096;-64
2023/01/27 05:37:35;;;;;;;49.20;26.90;;;;;;;20.92;29.06;99697.59;5026244;28;20033;-64
2023/01/27 05:40:24;;;;;;;56.83;28.15;;;;;;;20.80;30.03;99696.75;5025614;28;20085;-66
2023/01/27 05:43:13;;;;;;;51.08;25.13;;;;;;;21.02;29.44;99688.91;5021803;28;20053;-67
2023/01/27 05:46:06;;;;;;;41.63;22.92;;;;;;;20.75;30.28;99683.19;5042573;28;20057;-64
2023/01/27 05:48:58;;;;;;;34.27;20.50;;;;;;;20.59;27.79;99686.56;5032680;28;20042;-63
2023/01/27 05:51:53;;;;;;;35.60;20.52;;;;;;;21.07;29.50;99679.03;5026325;28;20282;-62
2023/01/27 05:54:29;;;;;;;36.20;20.85;;;;;;;21.46;28.58;99673.97;5029321;28;20141;-62
2023/01/27 05:57:18;;;;;;;32.33;19.10;;;;;;;21.10;29.25;99676.94;5026375;28;20111;-64
2023/01/27 06:00:00;;;;;;;32.38;18.88;;;;;;;20.97;28.59;99672.63;5009139;28;20137;-63
2023/01/27 06:02:55;;;;;;;40.33;20.15;;;;;;;21.48;29.94;99667.25;5025720;28;20049;-64
2023/01/27 06:05:31;;;;;;;37.30;19.33;;;;;;;21.43;27.43;99656.38;5024943;28;20049;-64
2023/01/27 06:08:28;;;;;;;31.58;19.00;;;;;;;21.24;26.45;99651.41;5019358;28;20060;-62
2023/01/27 06:11:05;;;;;;;35.20;19.02;;;;;;;21.27;28.20;99653.63;5018872;28;20083;-64
2023/01/27 06:13:54;;;;;;;32.10;19.33;;;;;;;21.08;26.50;99647.53;5020944;28;20374;-64
2023/01/27 06:16:46;;;;;;;36.20;18.85;;;;;;;21.66;28.07;99633.09;5026267;28;20065;-62
2023/01/27 06:19:28;;;;;;;36.55;19.27;;;;;;;21.77;27.55;99630.34;5023564;28;20107;-63
2023/01/27 06:22:17;;;;;;;32.42;17.27;;;;;;;21.46;27.79;99620.84;5025947;28;20647;-63
2023/01/27 06:25:07;;;;;;;28.63;16.67;;;;;;;21.08;27.48;99621.44;5025085;28;20054;-60
2023/01/27 06:27:49;;;;;;;27.05;16.83;;;;;;;21.30;27.71;99620.81;5021685;28;20489;-63
2023/01/27 06:30:39;;;;;;;36.10;17.60;;;;;;;21.02;28.45;99614.28;5025182;28;20061;-64
2023/01/27 06:33:21;;;;;;;29.92;16.45;;;;;;;21.60;29.42;99613.28;5024863;28;20252;-63
2023/01/27 06:36:16;;;;;;;33.08;16.60;;;;;;;21.65;29.35;99604.47;5007186;28;20050;-61
2023/01/27 06:39:05;;;;;;;36.20;17.42;;;;;;;21.66;28.72;99603.44;5026769;28;20077;-62
2023/01/27 06:41:49;;;;;;;27.52;16.88;;;;;;;21.41;28.60;99591.13;5041680;28;20049;-63
2023/01/27 06:44:37;;;;;;;37.42;19.95;;;;;;;20.09;26.90;99594.66;5027267;28;20500;-64
2023/01/27 06:47:19;;;;;;;34.97;18.33;;;;;;;20.00;27.79;99586.09;5023542;28;20100;-65
2023/01/27 06:50:08;;;;;;;37.38;19.08;;;;;;;21.01;29.07;99584.91;5014794;28;20041;-64
2023/01/27 06:52:52;;;;;;;36.40;20.48;;;;;;;20.86;28.23;99577.31;5008821;28;20073;-62
2023/01/27 06:55:43;;;;;;;36.58;20.27;;;;;;;20.46;26.46;99566.50;5026455;28;20053;-63
2023/01/27 06:58:39;;;;;;;34.70;19.73;;;;;;;20.54;27.16;99551.84;5021160;28;20650;-62
2023/01/27 07:01:15;;;;;;;37.35;20.58;;;;;;;20.99;28.78;99541.22;5030988;28;20496;-62
2023/01/27 07:04:10;;;;;;;36.22;20.52;;;;;;;20.82;27.75;99537.66;5027902;28;20115;-61
2023/01/27 07:06:46;;;;;;;38.15;20.88;;;;;;;20.96;28.87;99539.84;5026170;28;20053;-61
2023/01/27 07:09:34;;;;;;;34.65;19.55;;;;;;;20.58;27.93;99534.19;5039379;28;20054;-63
2023/01/27 07:12:36;;;;;;;37.97;20.10;;;;;;;20.78;29.80;99539.19;5025329;28;20076;-62
2023/01/27 07:15:18;;;;;;;33.75;19.05;;;;;;;20.88;28.45;99536.72;5034979;28;20150;-61
2023/01/27 07:18:07;;;;;;;34.00;19.85;;;;;;;20.04;27.43;99528.13;5024422;28;20142;-61
2023/01/27 07:20:49;;;;;;;38.08;20.13;;;;;;;20.47;28.69;99519.69;5023970;28;20077;-61
2023/01/27 07:23:38;;;;;;;37.28;21.30;;;;;;;20.61;29.54;99509.50;5023910;28;20495;-63
2023/01/27 07:26:20;;;;;;;35.17;19.08;;;;;;;20.72;29.02;99502.44;5023692;28;20080;-62
2023/01/27 07:29:15;;;;;;;37.13;20.33;;;;;;;20.94;29.37;99493.47;5020667;28;20060;-62
2023/01/27 07:31:51;;;;;;;35.17;19.50;;;;;;;20.94;28.77;99485.38;5022885;28;20664;-61
2023/01/27 07:34:46;;;;;;;37.05;20.90;;;;;;;20.95;28.10;99483.50;5022086;28;20617;-62
2023/01/27 07:37:22;;;;;;;41.90;21.40;;;;;;;21.01;29.09;99477.19;5022366;28;20068;-62
2023/01/27 07:40:12;;;;;;;33.83;20.80;;;;;;;20.78;27.38;99471.88;5017961;28;20146;-61
2023/01/27 07:42:54;;;;;;;43.08;20.40;;;;;;;20.80;29.41;99469.78;5027162;28;20642;-63
2023/01/27 07:45:47;;;;;;;34.33;19.95;;;;;;;20.41;26.61;99472.19;5005506;28;20140;-61
2023/01/27 07:48:29;;;;;;;36.08;20.55;;;;;;;19.82;28.79;99477.84;5021099;28;20055;-62
2023/01/27 07:51:18;;;;;;;39.15;20.67;;;;;;;20.37;29.75;99476.44;5022273;28;20433;-61
2023/01/27 07:54:07;;;;;;;37.92;19.88;;;;;;;20.52;29.46;99465.16;5018671;28;20858;-61
2023/01/27 07:56:49;;;;;;;36.47;20.80;;;;;;;20.62;28.92;99460.78;5021588;28;20045;-60
2023/01/27 07:59:38;;;;;;;36.95;20.75;;;;;;;20.25;28.80;99451.38;5017927;28;20069;-61
2023/01/27 08:02:24;;;;;;;38.33;20.83;;;;;;;20.53;29.55;99439.91;5022454;28;20049;-60
2023/01/27 08:05:14;;;;;;;41.50;21.70;;;;;;;20.49;28.69;99439.53;5024382;28;20324;-61
2023/01/27 08:07:57;;;;;;;37.85;20.65;;;;;;;20.47;28.52;99427.38;5032624;28;20053;-62
2023/01/27 08:10:48;;;;;;;44.00;18.80;;;;;;;20.55;28.33;99433.22;5026472;28;20152;-62
2023/01/27 08:13:31;;;;;;;33.83;18.98;;;;;;;20.49;28.12;99427.97;5003426;28;20064;-60
2023/01/27 08:16:20;;;;;;;34.05;19.90;;;;;;;20.75;29.18;99424.72;5030193;28;20068;-61
2023/01/27 08:19:02;;;;;;;40.40;19.08;;;;;;;20.55;25.72;99419.75;5017345;28;20057;-61
2023/01/27 08:21:51;;;;;;;34.33;19.80;;;;;;;20.59;26.74;99417.41;5033475;28;20045;-60
2023/01/27 08:24:42;;;;;;;33.33;18.17;;;;;;;20.37;26.06;99413.72;5028116;28;20369;-60
2023/01/27 08:27:31;;;;;;;43.22;20.40;;;;;;;20.22;25.72;99406.16;5026715;28;20717;-62
2023/01/27 08:30:13;;;;;;;32.97;18.10;;;;;;;20.21;26.88;99396.44;5026390;28;20053;-62
2023/01/27 08:33:02;;;;;;;46.90;19.55;;;;;;;20.41;27.51;99391.47;5035067;28;20061;-61
2023/01/27 08:35:57;;;;;;;31.80;19.15;;;;;;;20.55;27.96;99392.84;5034853;28;20053;-61
2023/01/27 08:38:33;;;;;;;48.33;20.40;;;;;;;20.40;27.27;99383.66;5032319;28;20056;-61
2023/01/27 08:41:24;;;;;;;37.38;21.30;;;;;;;20.05;26.16;99372.94;5034532;28;20052;-62
2023/01/27 08:44:13;;;;;;;33.80;18.40;;;;;;;20.03;26.57;99369.69;5033465;28;20052;-63
2023/01/27 08:46:55;;;;;;;36.75;18.80;;;;;;;20.15;27.94;99371.28;5029938;28;20512;-64
2023/01/27 08:49:45;;;;;;;36.58;19.75;;;;;;;20.09;27.29;99371.44;5040498;28;20052;-64
2023/01/27 08:52:33;;;;;;;40.83;19.58;;;;;;;20.02;28.26;99374.25;5026588;28;20052;-61
2023/01/27 08:55:15;;;;;;;38.22;19.95;;;;;;;19.58;27.79;99369.50;5033163;28;20046;-63
2023/01/27 08:58:04;;;;;;;43.63;21.25;;;;;;;19.87;29.73;99370.44;5024229;28;20065;-64
2023/01/27 09:00:53;;;;;;;43.38;21.30;;;;;;;20.12;30.90;99376.34;5028668;28;20574;-62
2023/01/27 09:03:42;;;;;;;39.22;21.30;;;;;;;20.12;30.46;99354.81;5031322;28;20049;-60
2023/01/27 09:06:25;;;;;;;44.95;21.20;;;;;;;20.08;29.27;99351.78;5032841;28;20048;-61
2023/01/27 09:09:14;;;;;;;43.63;21.48;;;;;;;20.00;27.29;99354.03;5035328;28;20136;-58
2023/01/27 09:11:56;;;;;;;45.83;21.77;;;;;;;20.00;28.57;99346.75;5039825;28;20049;-59
2023/01/27 09:14:45;;;;;;;46.88;21.90;;;;;;;19.82;29.44;99338.06;5037855;28;20080;-60
2023/01/27 09:17:27;;;;;;;40.53;21.52;;;;;;;20.04;29.52;99334.50;5034665;28;20056;-60
2023/01/27 09:20:23;;;;;;;38.60;21.98;;;;;;;19.99;28.26;99331.72;5034349;28;20064;-61
2023/01/27 09:23:00;;;;;;;37.72;20.00;;;;;;;19.90;28.07;99337.69;5039091;28;20037;-57
2023/01/27 09:25:56;;;;;;;45.67;20.63;;;;;;;20.00;29.54;99332.53;5033126;28;20053;-59
2023/01/27 09:28:38;;;;;;;38.20;20.77;;;;;;;19.89;29.69;99333.34;5033226;28;20128;-60
2023/01/27 09:31:27;;;;;;;40.53;20.85;;;;;;;19.81;28.96;99329.19;5018867;28;20053;-62
2023/01/27 09:34:11;;;;;;;37.28;20.23;;;;;;;19.92;29.21;99322.13;5027842;28;20664;-56
2023/01/27 09:37:05;;;;;;;42.30;20.38;;;;;;;19.86;29.18;99323.09;5015090;28;20414;-61
2023/01/27 09:40:08;;;;;;;44.28;20.63;;;;;;;19.84;28.50;99325.19;4995956;28;20041;-66
2023/01/27 09:43:37;;;;;;;35.72;20.70;;;;;;;19.88;29.55;99320.97;5019802;28;20053;-57
2023/01/27 09:46:53;;;;;;;40.47;20.00;;;;;;;19.86;28.60;99312.34;4941573;28;20458;-60
2023/01/27 09:50:05;;;;;;;34.13;19.98;;;;;;;19.61;28.43;99312.59;5018514;28;20049;-61
2023/01/27 09:53:05;;;;;;;37.85;20.83;;;;;;;19.57;28.85;99306.06;5021009;28;20069;-60
2023/01/27 09:56:15;;;;;;;33.65;19.77;;;;;;;19.49;28.89;99306.44;5023592;28;20126;-61
2023/01/27 09:59:10;;;;;;;41.78;20.98;;;;;;;19.43;27.70;99307.34;5027308;28;20147;-61
2023/01/27 10:02:17;;;;;;;37.60;18.88;;;;;;;19.47;27.94;99303.97;5026903;28;20050;-60
2023/01/27 10:05:24;;;;;;;37.42;18.65;;;;;;;19.57;28.63;99306.88;5021487;28;20057;-61
2023/01/27 10:08:25;;;;;;;31.45;18.17;;;;;;;19.57;28.05;99314.13;5006561;28;20775;-60
2023/01/27 10:11:51;;;;;;;37.13;18.52;;;;;;;19.57;28.43;99306.06;5021547;28;20049;-58
2023/01/27 10:15:00;;;;;;;34.78;18.08;;;;;;;19.59;30.50;99302.09;5026020;28;20061;-60
2023/01/27 10:18:10;;;;;;;37.00;18.23;;;;;;;19.51;28.87;99304.34;4658594;28;10000333;-59
2023/01/27 10:21:16;;;;;;;38.92;18.60;;;;;;;19.44;28.06;99299.06;5015499;28;20053;-62
2023/01/27 10:24:23;;;;;;;33.63;18.67;;;;;;;19.47;28.71;99301.28;4995640;28;20054;-60
2023/01/27 10:27:22;;;;;;;34.85;17.75;;;;;;;19.41;29.13;99293.31;5005752;28;20152;-60
2023/01/27 10:30:36;;;;;;;32.00;17.45;;;;;;;19.35;29.24;99288.88;5024086;28;20053;-59
2023/01/27 10:33:54;;;;;;;30.15;16.60;;;;;;;19.33;32.15;99302.56;5028423;28;20617;-59
2023/01/27 10:36:51;;;;;;;36.58;17.83;;;;;;;19.28;30.91;99299.75;5042010;28;20045;-58
2023/01/27 10:39:59;;;;;;;32.05;18.75;;;;;;;19.14;32.01;99299.16;5029508;28;20106;-60
2023/01/27 10:43:00;;;;;;;41.65;19.55;;;;;;;19.09;32.05;99304.41;5023718;28;20045;-60
2023/01/27 10:46:09;;;;;;;38.22;19.70;;;;;;;19.04;33.15;99293.56;5029664;28;20473;-59
2023/01/27 10:49:08;;;;;;;36.20;19.08;;;;;;;19.00;33.14;99297.75;5026912;28;20045;-59
2023/01/27 10:52:02;;;;;;;35.67;19.27;;;;;;;18.94;33.21;99293.31;5006768;28;20485;-61
2023/01/27 10:55:39;;;;;;;35.22;20.02;;;;;;;18.99;32.86;99289.91;5039982;28;20111;-60
2023/01/27 10:58:45;;;;;;;37.58;17.63;;;;;;;18.89;31.89;99293.22;4943402;29;20055;-57
2023/01/27 11:01:39;;;;;;;31.77;18.10;;;;;;;18.82;31.50;99295.97;4933302;29;20055;-58
2023/01/27 11:04:41;;;;;;;44.50;19.27;;;;;;;18.73;32.80;99283.13;5015850;28;20072;-61
2023/01/27 11:07:26;;;;;;;38.25;19.17;;;;;;;18.73;33.95;99285.81;5026795;28;20470;-59
2023/01/27 11:10:18;;;;;;;39.97;19.48;;;;;;;18.72;34.11;99284.19;5024164;28;20049;-59
2023/01/27 11:13:04;;;;;;;34.10;19.55;;;;;;;18.64;34.06;99279.13;5007044;28;20045;-58
2023/01/27 11:15:53;;;;;;;38.80;18.80;;;;;;;18.60;33.88;99284.16;5035003;28;20106;-59
2023/01/27 11:18:45;;;;;;;43.28;20.33;;;;;;;18.47;34.17;99280.81;5025134;28;20817;-58
2023/01/27 11:21:30;;;;;;;35.45;18.52;;;;;;;18.42;32.87;99285.00;5025496;28;20041;-57
2023/01/27 11:24:50;;;;;;;35.95;19.02;;;;;;;18.29;33.58;99293.25;5027294;28;20041;-59
2023/01/27 11:28:05;;;;;;;35.35;18.65;;;;;;;18.26;34.34;99290.22;5026597;28;20140;-59
2023/01/27 11:31:16;;;;;;;33.75;18.08;;;;;;;18.27;34.32;99286.47;5021197;28;20134;-58
2023/01/27 11:34:09;;;;;;;37.05;18.83;;;;;;;18.08;34.53;99291.06;5045275;28;20052;-57
2023/01/27 11:37:05;;;;;;;38.72;18.05;;;;;;;18.05;32.80;99296.06;5025034;28;20424;-59
2023/01/27 11:39:54;;;;;;;34.08;17.67;;;;;;;18.00;34.73;99295.91;5025347;28;20103;-59
2023/01/27 11:42:39;;;;;;;38.13;17.85;;;;;;;17.91;34.78;99287.38;5043830;28;20130;-58
2023/01/27 11:45:35;;;;;;;40.75;16.83;;;;;;;17.87;34.38;99286.19;5041878;28;20475;-61
2023/01/27 11:48:26;;;;;;;36.30;18.88;;;;;;;17.77;35.10;99281.34;5023352;28;20072;-59
2023/01/27 11:51:21;;;;;;;36.83;18.15;;;;;;;17.52;35.37;99280.59;5021668;28;20060;-61
2023/01/27 11:54:31;;;;;;;36.53;18.75;;;;;;;17.46;35.61;99282.28;5028112;28;20454;-58
2023/01/27 11:57:22;;;;;;;38.80;17.52;;;;;;;17.38;34.97;99276.41;5021887;28;20049;-60
2023/01/27 12:00:34;;;;;;;39.17;18.23;;;;;;;17.32;37.67;99271.94;5024756;28;20064;-57
2023/01/27 12:03:27;;;;;;;37.28;18.10;;;;;;;17.20;38.87;99269.19;5031502;28;20494;-58
2023/01/27 12:06:47;;;;;;;35.85;17.73;;;;;;;17.11;37.91;99275.03;4334195;28;10000072;-59
2023/01/27 12:09:43;;;;;;;46.17;19.42;;;;;;;17.03;40.90;99279.63;5022909;28;20049;-58
2023/01/27 12:12:24;;;;;;;35.90;17.95;;;;;;;16.87;41.23;99290.88;5034092;28;20239;-57
2023/01/27 12:15:17;;;;;;;40.90;19.80;;;;;;;16.81;39.40;99293.63;5018554;28;20053;-61
2023/01/27 12:18:10;;;;;;;45.23;19.97;;;;;;;16.80;41.52;99281.28;5023869;28;20052;-62
2023/01/27 12:21:00;;;;;;;39.03;19.55;;;;;;;16.66;42.25;99293.09;5021812;28;20294;-62
2023/01/27 12:24:00;;;;;;;45.92;20.70;;;;;;;16.58;43.14;99296.88;5024289;28;20045;-61
2023/01/27 12:26:44;;;;;;;47.37;20.30;;;;;;;16.45;41.88;99291.59;5017911;28;20053;-62
2023/01/27 12:29:46;;;;;;;46.60;21.10;;;;;;;16.45;42.54;99289.72;5029172;28;20045;-61
2023/01/27 12:32:37;;;;;;;48.53;21.80;;;;;;;16.38;41.20;99293.47;5019652;28;20100;-64
2023/01/27 12:35:34;;;;;;;52.47;22.52;;;;;;;16.43;42.36;99299.81;5017086;28;20069;-61
2023/01/27 12:38:25;;;;;;;48.58;22.73;;;;;;;16.36;42.81;99299.03;5025655;28;20080;-64
2023/01/27 12:41:24;;;;;;;48.40;21.42;;;;;;;16.39;43.24;99305.81;5037540;28;20126;-59
2023/01/27 12:44:28;;;;;;;51.30;22.70;;;;;;;16.28;43.53;99309.16;5024792;28;20046;-60
2023/01/27 12:47:33;;;;;;;42.47;20.30;;;;;;;16.13;43.32;99310.25;5024951;28;20057;-61
2023/01/27 12:50:21;;;;;;;44.15;21.67;;;;;;;16.22;43.14;99315.34;5019094;28;20041;-63
2023/01/27 12:53:14;;;;;;;46.08;20.77;;;;;;;16.25;44.08;99323.75;5044018;28;20044;-59
2023/01/27 12:56:26;;;;;;;43.00;19.73;;;;;;;16.09;45.05;99330.44;5045223;28;20049;-61
2023/01/27 12:59:18;;;;;;;49.55;21.45;;;;;;;16.03;44.82;99333.13;5021349;28;20046;-62
2023/01/27 13:02:22;;;;;;;52.90;21.65;;;;;;;15.96;45.98;99341.19;5024485;28;20156;-60
2023/01/27 13:05:10;;;;;;;41.45;20.92;;;;;;;16.01;45.68;99330.69;5034225;28;20058;-62
2023/01/27 13:08:00;;;;;;;53.67;23.15;;;;;;;15.99;46.79;99334.56;5032949;28;20056;-64
2023/01/27 13:11:09;;;;;;;48.70;22.80;;;;;;;15.77;47.56;99338.56;5030521;28;20053;-60
2023/01/27 13:13:58;;;;;;;51.20;21.67;;;;;;;15.84;47.18;99337.53;5020386;28;20045;-60
2023/01/27 13:16:40;;;;;;;48.03;21.60;;;;;;;16.11;45.43;99333.69;5028822;28;20049;-59
2023/01/27 13:19:52;;;;;;;51.78;22.85;;;;;;;16.20;45.14;99339.63;5037766;28;20152;-62
2023/01/27 13:22:52;;;;;;;52.85;22.88;;;;;;;16.09;45.20;99335.78;5035443;28;20543;-57
2023/01/27 13:25:41;;;;;;;55.83;24.50;;;;;;;15.97;46.00;99347.34;5038249;28;20037;-61
2023/01/27 13:28:45;;;;;;;49.20;24.77;;;;;;;15.81;46.20;99348.63;5033995;28;20396;-64
2023/01/27 13:31:52;;;;;;;58.78;27.02;;;;;;;15.69;46.65;99352.97;5026065;28;20053;-61
2023/01/27 13:34:47;;;;;;;62.85;27.15;;;;;;;15.61;47.91;99351.34;5029941;28;20045;-61
2023/01/27 13:37:40;;;;;;;60.05;28.30;;;;;;;15.61;46.50;99348.69;5040176;28;20053;-62
2023/01/27 13:40:42;;;;;;;71.22;27.60;;;;;;;15.48;48.77;99359.34;5044408;28;20056;-61